createdAt,value
2022-11-13T00:02:23.023Z,8.10
2022-11-13T00:05:08.769Z,8.10
2022-11-13T00:07:54.590Z,8.10
2022-11-13T00:10:39.944Z,8.10
2022-11-13T00:13:30.184Z,8.00
2022-11-13T00:16:18.960Z,8.10
2022-11-13T00:19:04.890Z,8.10
2022-11-13T00:21:51.159Z,8.10
2022-11-13T00:24:37.000Z,8.10
2022-11-13T00:27:22.695Z,8.10
2022-11-13T00:30:09.011Z,8.20
2022-11-13T00:32:54.696Z,8.20
2022-11-13T00:35:40.583Z,8.20
2022-11-13T00:38:26.839Z,8.20
2022-11-13T00:41:13.066Z,8.20
2022-11-13T00:43:58.885Z,8.20
2022-11-13T00:46:44.686Z,8.20
2022-11-13T00:49:31.168Z,8.20
2022-11-13T00:52:16.742Z,8.20
2022-11-13T00:55:02.416Z,8.20
2022-11-13T00:57:48.184Z,8.20
2022-11-13T01:00:33.934Z,8.20
2022-11-13T01:03:19.726Z,8.10
2022-11-13T01:06:21.200Z,8.10
2022-11-13T01:09:06.977Z,8.20
2022-11-13T01:11:52.892Z,8.20
2022-11-13T01:14:38.642Z,8.30
2022-11-13T01:17:23.869Z,8.20
2022-11-13T01:20:10.343Z,8.20
2022-11-13T01:22:56.164Z,8.20
2022-11-13T01:25:42.096Z,8.20
2022-11-13T01:28:27.877Z,8.20
2022-11-13T01:31:19.878Z,8.20
2022-11-13T01:34:05.457Z,8.20
2022-11-13T01:36:50.684Z,8.20
2022-11-13T01:39:36.185Z,8.30
2022-11-13T01:42:21.620Z,8.30
2022-11-13T01:45:45.237Z,8.20
2022-11-13T01:48:43.514Z,8.20
2022-11-13T01:51:33.857Z,8.20
2022-11-13T01:54:24.129Z,8.20
2022-11-13T01:57:10.661Z,8.20
2022-11-13T02:00:00.943Z,8.20
2022-11-13T02:02:46.454Z,8.20
2022-11-13T02:05:32.202Z,8.20
2022-11-13T02:08:18.014Z,8.20
2022-11-13T02:11:03.828Z,8.20
2022-11-13T02:13:50.029Z,8.20
2022-11-13T02:16:37.931Z,8.20
2022-11-13T02:19:31.866Z,8.20
2022-11-13T02:22:20.789Z,8.20
2022-11-13T02:25:08.398Z,8.10
2022-11-13T02:27:54.453Z,8.20
2022-11-13T02:30:39.930Z,8.20
2022-11-13T02:33:28.658Z,8.10
2022-11-13T02:36:15.256Z,8.20
2022-11-13T02:39:08.055Z,8.20
2022-11-13T02:41:53.609Z,8.20
2022-11-13T02:44:39.386Z,8.10
2022-11-13T02:47:24.951Z,8.10
2022-11-13T02:50:11.674Z,8.00
2022-11-13T02:52:57.684Z,8.00
2022-11-13T02:55:43.243Z,8.00
2022-11-13T02:58:29.427Z,8.00
2022-11-13T03:01:15.616Z,8.10
2022-11-13T03:04:01.541Z,8.10
2022-11-13T03:06:47.486Z,8.10
2022-11-13T03:09:33.073Z,8.10
2022-11-13T03:12:18.717Z,8.10
2022-11-13T03:15:05.635Z,8.00
2022-11-13T03:17:51.149Z,8.10
2022-11-13T03:20:39.030Z,8.10
2022-11-13T03:23:24.386Z,8.00
2022-11-13T03:26:11.855Z,8.00
2022-11-13T03:28:57.426Z,8.00
2022-11-13T03:31:42.970Z,8.00
2022-11-13T03:34:28.758Z,8.00
2022-11-13T03:37:14.734Z,8.00
2022-11-13T03:40:00.483Z,8.00
2022-11-13T03:42:46.224Z,8.00
2022-11-13T03:45:32.344Z,8.00
2022-11-13T03:48:18.021Z,8.00
2022-11-13T03:51:04.242Z,8.00
2022-11-13T03:53:49.872Z,7.90
2022-11-13T03:56:35.333Z,7.90
2022-11-13T03:59:21.174Z,7.90
2022-11-13T04:02:06.422Z,7.90
2022-11-13T04:04:52.020Z,7.90
2022-11-13T04:07:37.685Z,7.90
2022-11-13T04:10:23.296Z,7.90
2022-11-13T04:13:09.468Z,8.00
2022-11-13T04:15:54.958Z,7.90
2022-11-13T04:18:40.751Z,7.90
2022-11-13T04:21:27.914Z,7.90
2022-11-13T04:24:13.595Z,7.90
2022-11-13T04:26:59.073Z,7.90
2022-11-13T04:29:44.827Z,7.90
2022-11-13T04:32:31.611Z,7.90
2022-11-13T04:35:17.441Z,8.00
2022-11-13T04:38:03.115Z,7.90
2022-11-13T04:41:12.121Z,8.00
2022-11-13T04:43:57.963Z,8.00
2022-11-13T04:46:43.566Z,8.00
2022-11-13T04:49:29.391Z,8.00
2022-11-13T04:52:15.040Z,7.90
2022-11-13T04:55:00.833Z,8.00
2022-11-13T04:57:46.797Z,8.00
2022-11-13T05:00:32.621Z,7.90
2022-11-13T05:03:19.251Z,8.00
2022-11-13T05:06:10.255Z,8.00
2022-11-13T05:08:55.701Z,8.00
2022-11-13T05:11:41.426Z,8.00
2022-11-13T05:14:26.971Z,8.00
2022-11-13T05:17:13.859Z,8.00
2022-11-13T05:19:59.292Z,8.00
2022-11-13T05:22:45.232Z,8.00
2022-11-13T05:25:31.443Z,8.00
2022-11-13T05:28:17.561Z,8.00
2022-11-13T05:31:12.818Z,8.00
2022-11-13T05:34:02.669Z,7.90
2022-11-13T05:36:51.330Z,8.00
2022-11-13T05:39:37.268Z,7.90
2022-11-13T05:42:23.156Z,7.90
2022-11-13T05:45:09.129Z,7.90
2022-11-13T05:47:54.990Z,7.90
2022-11-13T05:50:40.611Z,7.90
2022-11-13T05:53:26.114Z,7.90
2022-11-13T05:56:22.538Z,7.80
2022-11-13T05:59:08.649Z,7.80
2022-11-13T06:01:54.319Z,7.90
2022-11-13T06:04:39.981Z,7.90
2022-11-13T06:07:25.467Z,7.90
2022-11-13T06:10:11.275Z,7.90
2022-11-13T06:12:56.761Z,7.90
2022-11-13T06:15:42.625Z,7.80
2022-11-13T06:18:29.242Z,7.80
2022-11-13T06:21:21.072Z,7.80
2022-11-13T06:24:08.324Z,7.80
2022-11-13T06:26:53.861Z,7.80
2022-11-13T06:29:39.437Z,7.80
2022-11-13T06:32:25.325Z,7.80
2022-11-13T06:35:11.108Z,7.80
2022-11-13T06:37:56.669Z,7.80
2022-11-13T06:40:42.402Z,7.70
2022-11-13T06:43:28.964Z,7.70
2022-11-13T06:46:17.404Z,7.70
2022-11-13T06:49:03.045Z,7.70
2022-11-13T06:51:48.852Z,7.70
2022-11-13T06:54:34.454Z,7.70
2022-11-13T06:57:20.031Z,7.70
2022-11-13T07:00:06.164Z,7.80
2022-11-13T07:02:51.798Z,7.70
2022-11-13T07:05:37.758Z,7.70
2022-11-13T07:08:23.810Z,7.70
2022-11-13T07:11:12.955Z,7.70
2022-11-13T07:13:59.105Z,7.70
2022-11-13T07:17:07.899Z,7.80
2022-11-13T07:19:50.995Z,7.70
2022-11-13T07:22:37.340Z,7.50
2022-11-13T07:25:23.612Z,7.80
2022-11-13T07:28:09.430Z,8.30
2022-11-13T07:30:59.204Z,7.80
2022-11-13T07:33:47.382Z,7.80
2022-11-13T07:36:33.262Z,7.80
2022-11-13T07:39:20.125Z,7.90
2022-11-13T07:42:06.258Z,7.90
2022-11-13T07:44:55.645Z,8.00
2022-11-13T07:47:41.886Z,8.00
2022-11-13T07:50:34.350Z,8.00
2022-11-13T07:53:20.898Z,8.10
2022-11-13T07:56:07.435Z,8.00
2022-11-13T07:58:53.356Z,8.00
2022-11-13T08:01:39.172Z,8.10
2022-11-13T08:04:25.295Z,8.10
2022-11-13T08:07:14.339Z,8.10
2022-11-13T08:10:00.379Z,8.20
2022-11-13T08:12:47.132Z,8.20
2022-11-13T08:15:34.279Z,8.10
2022-11-13T08:18:20.105Z,8.10
2022-11-13T08:21:10.602Z,8.30
2022-11-13T08:24:00.494Z,8.30
2022-11-13T08:26:47.202Z,8.20
2022-11-13T08:29:33.194Z,8.30
2022-11-13T08:32:19.952Z,8.30
2022-11-13T08:35:06.559Z,8.40
2022-11-13T08:37:52.155Z,8.40
2022-11-13T08:40:39.105Z,8.50
2022-11-13T08:43:25.619Z,7.90
2022-11-13T08:46:11.289Z,8.50
2022-11-13T08:48:57.341Z,8.60
2022-11-13T08:51:43.686Z,7.80
2022-11-13T08:54:29.885Z,8.80
2022-11-13T08:57:17.017Z,8.80
2022-11-13T09:00:06.240Z,8.80
2022-11-13T09:02:57.241Z,7.50
2022-11-13T09:05:43.489Z,8.70
2022-11-13T09:08:32.368Z,8.80
2022-11-13T09:11:18.168Z,8.80
2022-11-13T09:14:03.695Z,8.80
2022-11-13T09:16:50.342Z,8.90
2022-11-13T09:19:36.711Z,8.90
2022-11-13T09:22:22.813Z,8.90
2022-11-13T09:25:09.151Z,9.00
2022-11-13T09:27:56.692Z,8.60
2022-11-13T09:30:42.773Z,9.00
2022-11-13T09:33:28.924Z,9.00
2022-11-13T09:36:16.125Z,9.10
2022-11-13T09:39:02.225Z,9.00
2022-11-13T09:41:50.139Z,9.10
2022-11-13T09:44:43.168Z,9.10
2022-11-13T09:47:36.104Z,9.00
2022-11-13T09:50:28.083Z,8.90
2022-11-13T09:53:14.866Z,8.90
2022-11-13T09:56:28.820Z,8.90
2022-11-13T09:59:27.672Z,8.80
2022-11-13T10:02:25.841Z,8.80
2022-11-13T10:05:28.529Z,8.90
2022-11-13T10:08:22.015Z,8.80
2022-11-13T10:11:39.561Z,8.80
2022-11-13T10:14:36.989Z,8.70
2022-11-13T10:17:46.240Z,8.60
2022-11-13T10:20:34.775Z,8.60
2022-11-13T10:23:24.741Z,8.60
2022-11-13T10:26:20.464Z,8.60
2022-11-13T10:29:19.196Z,8.60
2022-11-13T10:32:21.827Z,8.60
2022-11-13T10:35:42.273Z,8.50
2022-11-13T10:38:47.003Z,8.40
2022-11-13T10:41:33.236Z,8.40
2022-11-13T10:44:36.143Z,8.30
2022-11-13T10:47:56.964Z,8.10
2022-11-13T10:50:32.094Z,8.10
2022-11-13T10:53:19.253Z,8.00
2022-11-13T10:56:13.185Z,8.00
2022-11-13T10:59:03.881Z,8.00
2022-11-13T11:01:50.432Z,8.00
2022-11-13T11:04:36.282Z,7.90
2022-11-13T11:07:23.563Z,8.00
2022-11-13T11:10:22.952Z,8.00
2022-11-13T11:13:20.871Z,7.90
2022-11-13T11:16:08.754Z,7.90
2022-11-13T11:19:00.830Z,8.00
2022-11-13T11:21:47.277Z,7.90
2022-11-13T11:24:38.666Z,7.90
2022-11-13T11:27:44.948Z,7.90
2022-11-13T11:30:40.082Z,8.00
2022-11-13T11:33:47.687Z,8.00
2022-11-13T11:36:49.314Z,8.00
2022-11-13T11:39:48.332Z,8.00
2022-11-13T11:42:39.768Z,8.00
2022-11-13T11:45:39.799Z,8.00
2022-11-13T11:48:30.028Z,7.90
2022-11-13T11:51:16.165Z,7.80
2022-11-13T11:54:13.778Z,7.80
2022-11-13T11:57:24.293Z,7.80
2022-11-13T12:00:17.757Z,7.70
2022-11-13T12:03:27.446Z,6.60
2022-11-13T12:06:37.339Z,7.70
2022-11-13T12:09:35.319Z,7.70
2022-11-13T12:12:43.866Z,7.70
2022-11-13T12:15:52.493Z,7.60
2022-11-13T12:19:03.722Z,7.60
2022-11-13T12:22:11.255Z,7.70
2022-11-13T12:24:57.322Z,7.70
2022-11-13T12:27:53.424Z,7.70
2022-11-13T12:31:03.810Z,7.90
2022-11-13T12:34:01.275Z,7.80
2022-11-13T12:36:48.469Z,7.70
2022-11-13T12:39:43.825Z,7.70
2022-11-13T12:43:19.701Z,7.70
2022-11-13T12:46:11.303Z,7.80
2022-11-13T12:48:58.324Z,7.10
2022-11-13T12:51:58.274Z,7.90
2022-11-13T12:54:44.435Z,7.80
2022-11-13T12:57:32.481Z,7.70
2022-11-13T13:00:27.482Z,7.80
2022-11-13T13:03:16.439Z,7.80
2022-11-13T13:06:20.384Z,7.80
2022-11-13T13:09:34.402Z,7.80
2022-11-13T13:13:07.356Z,7.90
2022-11-13T13:16:04.504Z,7.00
2022-11-13T13:18:51.107Z,7.90
2022-11-13T13:21:44.637Z,7.80
2022-11-13T13:24:34.974Z,7.80
2022-11-13T13:27:28.869Z,7.80
2022-11-13T13:30:21.734Z,7.80
2022-11-13T13:33:21.596Z,7.90
2022-11-13T13:36:22.367Z,7.90
2022-11-13T13:39:26.928Z,7.90
2022-11-13T13:42:37.952Z,8.00
2022-11-13T13:45:47.703Z,7.90
2022-11-13T13:48:40.250Z,7.90
2022-11-13T13:51:27.945Z,7.90
2022-11-13T13:54:24.026Z,7.90
2022-11-13T13:57:16.253Z,7.80
2022-11-13T14:00:02.932Z,7.80
2022-11-13T14:02:52.159Z,7.80
2022-11-13T14:05:38.123Z,7.90
2022-11-13T14:08:27.297Z,7.90
2022-11-13T14:11:27.328Z,7.90
2022-11-13T14:14:22.234Z,7.90
2022-11-13T14:17:10.837Z,7.90
2022-11-13T14:20:01.286Z,7.90
2022-11-13T14:22:56.351Z,7.90
2022-11-13T14:25:44.094Z,7.80
2022-11-13T14:28:42.019Z,7.80
2022-11-13T14:31:32.988Z,7.90
2022-11-13T14:34:22.202Z,7.80
2022-11-13T14:37:23.398Z,7.00
2022-11-13T14:40:12.437Z,7.80
2022-11-13T14:43:03.412Z,7.70
2022-11-13T14:45:59.242Z,7.70
2022-11-13T14:48:54.452Z,7.70
2022-11-13T14:51:40.434Z,6.70
2022-11-13T14:57:51.817Z,6.50
2022-11-13T15:00:38.608Z,7.70
2022-11-13T15:03:26.941Z,7.60
2022-11-13T15:06:25.003Z,7.60
2022-11-13T15:09:15.080Z,7.60
2022-11-13T15:12:01.485Z,7.60
2022-11-13T15:14:47.686Z,7.50
2022-11-13T15:17:33.856Z,7.30
2022-11-13T15:20:22.794Z,7.20
2022-11-13T15:23:11.521Z,7.10
2022-11-13T15:25:57.789Z,7.10
2022-11-13T15:28:44.122Z,7.00
2022-11-13T15:31:33.954Z,7.00
2022-11-13T15:34:19.768Z,7.00
2022-11-13T15:37:13.764Z,6.90
2022-11-13T15:39:59.706Z,6.90
2022-11-13T15:42:45.946Z,6.90
2022-11-13T15:45:31.809Z,6.90
2022-11-13T15:48:18.096Z,6.80
2022-11-13T15:51:04.726Z,6.80
2022-11-13T15:54:24.947Z,6.80
2022-11-13T15:57:28.190Z,6.70
2022-11-13T16:00:25.181Z,6.60
2022-11-13T16:03:12.540Z,6.60
2022-11-13T16:06:00.399Z,6.50
2022-11-13T16:08:47.124Z,6.40
2022-11-13T16:11:34.588Z,6.40
2022-11-13T16:14:24.566Z,6.40
2022-11-13T16:17:20.339Z,6.40
2022-11-13T16:20:07.987Z,6.40
2022-11-13T16:22:54.016Z,6.30
2022-11-13T16:25:40.057Z,6.30
2022-11-13T16:28:26.021Z,6.20
2022-11-13T16:31:11.715Z,6.20
2022-11-13T16:33:57.516Z,6.10
2022-11-13T16:36:43.261Z,6.10
2022-11-13T16:39:29.138Z,6.10
2022-11-13T16:42:16.500Z,6.00
2022-11-13T16:45:02.041Z,6.00
2022-11-13T16:47:48.122Z,5.90
2022-11-13T16:50:34.853Z,6.00
2022-11-13T16:53:20.623Z,5.90
2022-11-13T16:56:16.153Z,5.90
2022-11-13T16:59:01.858Z,5.90
2022-11-13T17:01:47.355Z,5.90
2022-11-13T17:04:32.909Z,5.80
2022-11-13T17:07:18.722Z,5.80
2022-11-13T17:10:29.775Z,5.80
2022-11-13T17:13:11.047Z,5.70
2022-11-13T17:16:01.508Z,5.60
2022-11-13T17:18:53.089Z,5.60
2022-11-13T17:21:43.900Z,5.60
2022-11-13T17:24:29.997Z,5.50
2022-11-13T17:27:16.175Z,5.50
2022-11-13T17:30:02.154Z,5.50
2022-11-13T17:32:47.793Z,5.40
2022-11-13T17:35:33.725Z,5.40
2022-11-13T17:38:19.605Z,5.40
2022-11-13T17:41:09.088Z,5.40
2022-11-13T17:43:59.856Z,5.40
2022-11-13T17:46:48.268Z,5.30
2022-11-13T17:49:34.283Z,5.40
2022-11-13T17:52:20.247Z,5.40
2022-11-13T17:55:07.754Z,5.40
2022-11-13T17:57:53.654Z,5.40
2022-11-13T18:00:39.235Z,5.40
2022-11-13T18:03:25.233Z,5.40
2022-11-13T18:06:13.751Z,5.30
2022-11-13T18:09:01.431Z,5.30
2022-11-13T18:11:47.001Z,5.30
2022-11-13T18:14:33.218Z,5.20
2022-11-13T18:17:19.902Z,5.20
2022-11-13T18:20:05.923Z,5.10
2022-11-13T18:22:51.728Z,5.20
2022-11-13T18:25:39.653Z,5.10
2022-11-13T18:28:25.391Z,5.10
2022-11-13T18:31:17.836Z,5.00
2022-11-13T18:34:05.410Z,4.90
2022-11-13T18:36:51.967Z,5.00
2022-11-13T18:39:37.849Z,5.00
2022-11-13T18:42:23.823Z,4.90
2022-11-13T18:45:09.749Z,4.90
2022-11-13T18:47:55.564Z,4.90
2022-11-13T18:50:41.620Z,4.90
2022-11-13T18:53:28.569Z,4.80
2022-11-13T18:56:17.276Z,4.80
2022-11-13T18:59:03.071Z,4.80
2022-11-13T19:01:48.826Z,4.80
2022-11-13T19:04:35.424Z,4.80
2022-11-13T19:07:21.373Z,4.80
2022-11-13T19:10:07.510Z,4.70
2022-11-13T19:12:53.338Z,4.70
2022-11-13T19:15:39.648Z,4.70
2022-11-13T19:18:25.072Z,4.70
2022-11-13T19:21:15.732Z,4.70
2022-11-13T19:24:01.805Z,4.70
2022-11-13T19:26:47.720Z,4.70
2022-11-13T19:29:34.048Z,4.70
2022-11-13T19:32:19.767Z,4.70
2022-11-13T19:35:05.887Z,4.80
2022-11-13T19:37:57.737Z,4.80
2022-11-13T19:40:51.554Z,4.80
2022-11-13T19:43:39.733Z,4.80
2022-11-13T19:46:25.867Z,4.70
2022-11-13T19:49:11.470Z,4.70
2022-11-13T19:51:57.298Z,4.70
2022-11-13T19:54:43.273Z,4.70
2022-11-13T19:57:29.133Z,4.70
2022-11-13T20:00:15.540Z,4.80
2022-11-13T20:03:06.438Z,4.80
2022-11-13T20:05:56.472Z,4.80
2022-11-13T20:08:42.607Z,4.80
2022-11-13T20:11:28.614Z,4.80
2022-11-13T20:14:14.300Z,4.80
2022-11-13T20:17:00.161Z,4.80
2022-11-13T20:19:50.634Z,4.80
2022-11-13T20:22:36.502Z,4.80
2022-11-13T20:25:22.104Z,4.80
2022-11-13T20:28:07.973Z,4.80
2022-11-13T20:31:06.708Z,4.80
2022-11-13T20:33:54.976Z,4.80
2022-11-13T20:36:40.380Z,4.70
2022-11-13T20:39:26.512Z,4.80
2022-11-13T20:42:12.103Z,4.70
2022-11-13T20:45:01.102Z,4.80
2022-11-13T20:47:47.429Z,4.80
2022-11-13T20:50:36.504Z,4.80
2022-11-13T20:53:22.178Z,4.70
2022-11-13T20:56:08.695Z,4.70
2022-11-13T20:58:54.729Z,4.80
2022-11-13T21:01:40.673Z,4.90
2022-11-13T21:04:26.368Z,4.80
2022-11-13T21:07:12.391Z,4.80
2022-11-13T21:09:58.168Z,4.90
2022-11-13T21:12:43.978Z,5.00
2022-11-13T21:15:29.512Z,5.00
2022-11-13T21:18:15.019Z,5.00
2022-11-13T21:21:08.923Z,4.90
2022-11-13T21:23:59.182Z,5.00
2022-11-13T21:26:45.431Z,4.90
2022-11-13T21:29:30.971Z,4.80
2022-11-13T21:32:16.521Z,4.90
2022-11-13T21:35:02.386Z,4.90
2022-11-13T21:37:47.887Z,4.90
2022-11-13T21:40:33.670Z,4.90
2022-11-13T21:43:19.191Z,4.90
2022-11-13T21:46:05.999Z,4.90
2022-11-13T21:49:00.579Z,4.90
2022-11-13T21:51:46.207Z,4.90
2022-11-13T21:54:31.760Z,4.80
2022-11-13T21:57:19.112Z,4.80
2022-11-13T22:00:05.503Z,4.80
2022-11-13T22:02:51.306Z,4.90
2022-11-13T22:05:36.810Z,4.80
2022-11-13T22:08:22.576Z,4.70
2022-11-13T22:11:08.257Z,4.70
2022-11-13T22:13:54.386Z,4.70
2022-11-13T22:16:43.043Z,4.60
2022-11-13T22:19:33.459Z,4.60
2022-11-13T22:22:21.229Z,4.60
2022-11-13T22:25:07.369Z,4.60
2022-11-13T22:27:52.979Z,4.50
2022-11-13T22:30:38.620Z,4.50
2022-11-13T22:33:27.944Z,4.50
2022-11-13T22:36:19.033Z,4.50
2022-11-13T22:39:04.995Z,4.50
2022-11-13T22:41:50.446Z,4.50
2022-11-13T22:44:54.932Z,4.50
2022-11-13T22:47:41.688Z,4.50
2022-11-13T22:50:27.127Z,4.40
2022-11-13T22:53:14.786Z,4.50
2022-11-13T22:56:09.860Z,4.50
2022-11-13T22:58:57.829Z,4.50
2022-11-13T23:01:43.744Z,4.50
2022-11-13T23:04:29.469Z,4.40
2022-11-13T23:07:15.098Z,4.40
2022-11-13T23:10:00.626Z,4.40
2022-11-13T23:12:46.154Z,4.40
2022-11-13T23:15:31.859Z,4.30
2022-11-13T23:18:17.416Z,4.40
2022-11-13T23:21:02.941Z,4.40
2022-11-13T23:23:48.904Z,4.40
2022-11-13T23:26:34.679Z,4.30
2022-11-13T23:29:21.268Z,4.20
2022-11-13T23:32:06.739Z,4.30
2022-11-13T23:34:59.233Z,4.20
2022-11-13T23:37:46.308Z,4.30
2022-11-13T23:40:32.399Z,4.30
2022-11-13T23:43:18.115Z,4.40
2022-11-13T23:46:04.459Z,4.40
2022-11-13T23:48:50.318Z,4.30
2022-11-13T23:51:35.999Z,4.30
2022-11-13T23:54:21.501Z,4.30
2022-11-13T23:57:07.222Z,4.20
2022-11-13T23:59:53.088Z,4.30
